Nearby METAR Reports

KLNK - Lincoln, Nebraska, USA
Distance from station: WNW 8mi, 13km
Updated: Fri, 18-Sep-2020 3:54pm CDT
Partly Cloudy
Partly Cloudy
 Wind from ESE
Wind: ESE 7 mph , 11 km/h
Temperature: 72°F , 22°C
Dew Point: 46°F , 8°C
Humidity: 41%
Barometer: 30.26 inHg , 1024.7 hPa
Clouds: Partly Cloudy
Visibility: 9 miles , 14 km
Cloud details: Partly Cloudy 7500 ft
2020/09/18 20:54 KLNK 182054Z 11006KT 9SM SCT075 22/08 A3026 RMK AO2 SLP243 T02220083 56028
KAHQ - Wahoo, Nebraska, USA
Distance from station: N 31mi, 49km
Updated: Fri, 18-Sep-2020 3:55pm CDT
Mostly Cloudy
Mostly Cloudy
 Wind from ESE
Wind: ESE 7 mph , 11 km/h
Temperature: 70°F , 21°C
Dew Point: 45°F , 7°C
Humidity: 40%
Barometer: 30.27 inHg , 1025.1 hPa
Clouds: Mostly Cloudy
Visibility: 10 miles , 16 km
Cloud details: Mostly Cloudy 6500 ft
2020/09/18 20:55 KAHQ 182055Z AUTO 11006KT 10SM BKN065 21/07 A3027 RMK AO2 T02140073
 
KBIE - Beatrice Municip, Nebraska, USA
Distance from station: S 36mi, 57km
Updated: Fri, 18-Sep-2020 3:55pm CDT
Haze, Clear
Haze, Clear
 Wind from SE
Wind: SE 9 mph , 15 km/h
Temperature: 73°F , 23°C
Dew Point: 50°F , 10°C
Humidity: 44%
Barometer: 30.25 inHg , 1024.4 hPa
Summary: Haze
Clouds: Clear
Visibility: 5 miles , 8 km
2020/09/18 20:55 KBIE 182055Z AUTO 14008KT 5SM HZ CLR 23/10 A3025 RMK AO2 T02260095
KMLE - Omaha/Millard, Nebraska, USA
Distance from station: NE 39mi, 63km
Updated: Fri, 18-Sep-2020 3:55pm CDT
Partly Cloudy
Partly Cloudy
 Wind from calm
Wind: Calm
Temperature: 72°F , 22°C
Dew Point: 43°F , 6°C
Humidity: 36%
Barometer: 30.27 inHg , 1025.1 hPa
Clouds: Partly Cloudy
Visibility: 10 miles , 16 km
Cloud details: Partly Cloudy 8000 ft
2020/09/18 20:55 KMLE 182055Z AUTO 00000KT 10SM SCT080 22/06 A3027 RMK AO2 T02180064
 
KPMV - Plattsmouth Muni, Nebraska, USA
Distance from station: ENE 39mi, 63km
Updated: Fri, 18-Sep-2020 3:55pm CDT
Clear
Clear
 Wind from NE
Wind: NE 5 mph , 7 km/h
Temperature: 72°F , 22°C
Dew Point: 45°F , 7°C
Humidity: 38%
Barometer: 30.27 inHg , 1025.1 hPa
Clouds: Clear
Visibility: 10 miles , 16 km
2020/09/18 20:55 KPMV 182055Z AUTO 04004KT 10SM CLR 22/07 A3027 RMK AO2 T02180072
KAFK - Nebraska City, Nebraska, USA
Distance from station: ESE 43mi, 69km
Updated: Fri, 18-Sep-2020 3:55pm CDT
Haze, Partly cloudy
Haze, Partly cloudy
 Wind from ENE
Wind: ENE 6 mph , 9 km/h
Temperature: 72°F , 22°C
Dew Point: 48°F , 9°C
Humidity: 44%
Barometer: 30.26 inHg , 1024.7 hPa
Summary: Haze
Clouds: Partly Cloudy
Visibility: 4 miles , 6 km
Cloud details: Partly Cloudy 8000 ft
2020/09/18 20:55 KAFK 182055Z AUTO 06005KT 4SM HZ SCT080 22/09 A3026 RMK AO2 T02230086
 
KOFF - Offutt Afb/Belle, Nebraska, USA
Distance from station: ENE 44mi, 70km
Updated: Fri, 18-Sep-2020 3:56pm CDT
Clear
Clear
 Wind from E
Wind: E 3 mph , 6 km/h
Temperature: 73°F , 23°C
Dew Point: 45°F , 7°C
Humidity: 36%
Barometer: 30.26 inHg , 1024.7 hPa
Clouds: Clear
Visibility: 10 miles , 16 km
2020/09/18 20:56 KOFF 182056Z AUTO 08003KT 10SM CLR 23/07 A3026 RMK AO2 SLP249 T02270068 57025 $
KFET - Fremont Muni Arp, Nebraska, USA
Distance from station: N 46mi, 74km
Updated: Fri, 18-Sep-2020 3:55pm CDT
Overcast
Overcast
 Wind from SSE
Wind: SSE 5 mph , 7 km/h
Temperature: 70°F , 21°C
Dew Point: 45°F , 7°C
Humidity: 40%
Barometer: 30.27 inHg , 1025.1 hPa
Clouds: Overcast
Visibility: 10 miles , 16 km
Cloud details: Overcast 7500 ft
2020/09/18 20:55 KFET 182055Z AUTO 16004KT 10SM OVC075 21/07 A3027 RMK AO2 T02090069
 
KBTA - Blair Muni, Nebraska, USA
Distance from station: NNE 51mi, 82km
Updated: Fri, 18-Sep-2020 3:55pm CDT
Clear
Clear
 Wind from S
Wind: S 6 mph , 9 km/h
Temperature: 70°F , 21°C
Dew Point: 43°F , 6°C
Humidity: 38%
Barometer: 30.27 inHg , 1025.1 hPa
Clouds: Clear
Visibility: 10 miles , 16 km
2020/09/18 20:55 KBTA 182055Z AUTO 17005KT 10SM CLR 21/06 A3027 RMK AO2 T02140061
KJYR - York, Nebraska, USA
Distance from station: W 52mi, 84km
Updated: Fri, 18-Sep-2020 3:55pm CDT
Mostly Cloudy
Mostly Cloudy
 Wind from ESE
Wind: ESE 12 mph , 19 km/h
Temperature: 70°F , 21°C
Dew Point: 50°F , 10°C
Humidity: 50%
Barometer: 30.25 inHg , 1024.4 hPa
Clouds: Mostly Cloudy
Visibility: 10 miles , 16 km
Cloud details: Mostly Cloudy 6000 ft
2020/09/18 20:55 KJYR 182055Z AUTO 12010KT 10SM BKN060 21/10 A3025 RMK AO2
 
KOMA - Omaha/Eppley, Nebraska, USA
Distance from station: NE 53mi, 85km
Updated: Fri, 18-Sep-2020 3:52pm CDT
Partly Cloudy
Partly Cloudy
 Wind from calm
Wind: Calm
Temperature: 72°F , 22°C
Dew Point: 39°F , 4°C
Humidity: 31%
Barometer: 30.26 inHg , 1024.7 hPa
Clouds: Partly Cloudy
Visibility: 10 miles , 16 km
Cloud details: Partly Cloudy 18000 ft
2020/09/18 20:52 KOMA 182052Z 00000KT 10SM SCT180 22/04 A3026 RMK AO2 SLP245 FU SCT180 T02220039 58025
KOLU - Columbus Muni, Nebraska, USA
Distance from station: NW 58mi, 93km
Updated: Fri, 18-Sep-2020 3:56pm CDT
Overcast
Overcast
 Wind from SSE
Wind: SSE 7 mph , 11 km/h
Temperature: 70°F , 21°C
Dew Point: 46°F , 8°C
Humidity: 43%
Barometer: 30.26 inHg , 1024.7 hPa
Clouds: Overcast
Visibility: 10 miles , 16 km
Cloud details: Overcast 7000 ft
2020/09/18 20:56 KOLU 182056Z AUTO 15006KT 10SM OVC070 21/08 A3026 RMK AO2 SLP249 T02060083 56028